RYR66HC EDDK-EGSS
Flight info
| Callsign | RYR66HC |
|---|---|
| Flight time | 1h 0m |
| Altitude | 24000 |
| Route | NVO3W NVO Y868 SOGRI L608 SUMUM Y6 TOSVA |
| Aircraft | B738/M-SDE2E3FGHIRWXY/LB1 |
Departure
| Time | 2026-05-04 09:25 |
|---|---|
| Airport | Cologne Bonn Airport (EDDK) |
Arrival
| Time | 2026-05-04 10:26 |
|---|---|
| Airport | London Stansted Airport (EGSS) |
| Time | Latitude | Longitude | Altitude | Speed | Heading |
|---|---|---|---|---|---|
| 2026-05-04 08:51 | 50.88153 | 7.12000 | 231 ft | 0 kts | 216° |
| 2026-05-04 09:17 | 50.88223 | 7.12000 | 232 ft | 0 kts | 126° |
| 2026-05-04 09:21 | 50.88212 | 7.12026 | 233 ft | 6 kts | 126° |
| 2026-05-04 09:21 | 50.88181 | 7.12095 | 232 ft | 8 kts | 125° |
| 2026-05-04 09:22 | 50.88148 | 7.12164 | 231 ft | 8 kts | 125° |
| 2026-05-04 09:22 | 50.88113 | 7.12243 | 231 ft | 9 kts | 121° |
| 2026-05-04 09:22 | 50.88080 | 7.12360 | 231 ft | 14 kts | 121° |
| 2026-05-04 09:22 | 50.88028 | 7.12499 | 233 ft | 16 kts | 121° |
| 2026-05-04 09:23 | 50.87985 | 7.12638 | 232 ft | 13 kts | 99° |
| 2026-05-04 09:23 | 50.88002 | 7.12773 | 237 ft | 12 kts | 72° |
| 2026-05-04 09:23 | 50.88007 | 7.12907 | 238 ft | 12 kts | 95° |
| 2026-05-04 09:23 | 50.87967 | 7.13023 | 238 ft | 13 kts | 137° |
| 2026-05-04 09:25 | 50.83047 | 7.19972 | 2396 ft | 208 kts | 142° |
| 2026-05-04 09:25 | 50.81895 | 7.21562 | 2700 ft | 223 kts | 140° |
| 2026-05-04 09:26 | 50.80729 | 7.23194 | 3312 ft | 229 kts | 139° |
| 2026-05-04 09:26 | 50.79405 | 7.24521 | 4160 ft | 226 kts | 172° |
| 2026-05-04 09:26 | 50.77837 | 7.24431 | 4959 ft | 227 kts | 193° |
| 2026-05-04 09:26 | 50.76419 | 7.23366 | 5674 ft | 229 kts | 226° |
| 2026-05-04 09:27 | 50.75591 | 7.21235 | 6443 ft | 230 kts | 246° |
| 2026-05-04 09:27 | 50.74994 | 7.18869 | 7221 ft | 231 kts | 262° |
| 2026-05-04 09:27 | 50.75091 | 7.16297 | 7795 ft | 246 kts | 278° |
| 2026-05-04 09:27 | 50.75407 | 7.13496 | 8156 ft | 268 kts | 280° |
| 2026-05-04 09:28 | 50.75825 | 7.10589 | 8874 ft | 274 kts | 282° |
| 2026-05-04 09:28 | 50.76274 | 7.07616 | 9789 ft | 275 kts | 282° |
| 2026-05-04 09:28 | 50.76709 | 7.04681 | 10449 ft | 285 kts | 281° |
| 2026-05-04 09:28 | 50.77168 | 7.01491 | 10648 ft | 311 kts | 280° |
| 2026-05-04 09:29 | 50.77649 | 6.98071 | 11131 ft | 324 kts | 280° |
| 2026-05-04 09:29 | 50.78137 | 6.94555 | 11860 ft | 330 kts | 279° |
| 2026-05-04 09:29 | 50.78626 | 6.90999 | 12674 ft | 334 kts | 279° |
| 2026-05-04 09:29 | 50.79119 | 6.87389 | 13494 ft | 338 kts | 279° |
| 2026-05-04 09:30 | 50.79616 | 6.83725 | 14252 ft | 343 kts | 279° |
| 2026-05-04 09:30 | 50.80117 | 6.80013 | 15025 ft | 347 kts | 279° |
| 2026-05-04 09:30 | 50.80621 | 6.76269 | 15817 ft | 350 kts | 279° |
| 2026-05-04 09:30 | 50.81131 | 6.72479 | 16593 ft | 354 kts | 279° |
| 2026-05-04 09:31 | 50.81645 | 6.68637 | 17348 ft | 359 kts | 279° |
| 2026-05-04 09:31 | 50.82162 | 6.64770 | 18225 ft | 359 kts | 278° |
| 2026-05-04 09:31 | 50.82504 | 6.60899 | 19130 ft | 352 kts | 270° |
| 2026-05-04 09:31 | 50.82583 | 6.57062 | 20128 ft | 345 kts | 267° |
| 2026-05-04 09:32 | 50.82588 | 6.53275 | 20952 ft | 344 kts | 266° |
| 2026-05-04 09:32 | 50.82585 | 6.49496 | 21783 ft | 343 kts | 266° |
| 2026-05-04 09:34 | 50.82799 | 6.23613 | 23991 ft | 333 kts | 266° |
| 2026-05-04 09:34 | 50.82836 | 6.19965 | 23984 ft | 331 kts | 266° |
| 2026-05-04 09:34 | 50.82872 | 6.16330 | 23985 ft | 330 kts | 266° |
| 2026-05-04 09:34 | 50.82907 | 6.12751 | 23997 ft | 329 kts | 266° |
| 2026-05-04 09:35 | 50.82942 | 6.09128 | 24011 ft | 330 kts | 266° |
| 2026-05-04 09:35 | 50.82975 | 6.05493 | 23996 ft | 331 kts | 266° |
| 2026-05-04 09:35 | 50.83005 | 6.01853 | 23988 ft | 330 kts | 265° |
| 2026-05-04 09:35 | 50.82935 | 5.98233 | 23991 ft | 329 kts | 263° |
| 2026-05-04 09:37 | 50.82343 | 5.72545 | 23998 ft | 337 kts | 264° |
| 2026-05-04 09:37 | 50.82272 | 5.68875 | 23989 ft | 332 kts | 264° |
| 2026-05-04 09:38 | 50.82204 | 5.65235 | 23978 ft | 331 kts | 264° |
| 2026-05-04 09:38 | 50.82123 | 5.61603 | 24021 ft | 329 kts | 263° |
| 2026-05-04 09:38 | 50.82037 | 5.57994 | 24006 ft | 329 kts | 263° |
| 2026-05-04 09:38 | 50.81947 | 5.54381 | 24005 ft | 329 kts | 263° |
| 2026-05-04 09:39 | 50.81856 | 5.50764 | 24019 ft | 329 kts | 263° |
| 2026-05-04 09:39 | 50.81764 | 5.47148 | 24010 ft | 330 kts | 263° |
| 2026-05-04 09:39 | 50.81672 | 5.43522 | 24020 ft | 331 kts | 263° |
| 2026-05-04 09:39 | 50.81578 | 5.39888 | 24010 ft | 332 kts | 263° |
| 2026-05-04 09:40 | 50.81482 | 5.36235 | 24022 ft | 333 kts | 263° |
| 2026-05-04 09:40 | 50.81386 | 5.32584 | 24010 ft | 333 kts | 263° |
| 2026-05-04 09:40 | 50.81288 | 5.28915 | 24007 ft | 334 kts | 263° |
| 2026-05-04 09:40 | 50.81188 | 5.25248 | 24006 ft | 335 kts | 263° |
| 2026-05-04 09:41 | 50.81086 | 5.21567 | 23986 ft | 335 kts | 263° |
| 2026-05-04 09:42 | 50.82188 | 4.95891 | 23991 ft | 345 kts | 282° |
| 2026-05-04 09:43 | 50.82905 | 4.92269 | 23986 ft | 345 kts | 282° |
| 2026-05-04 09:43 | 50.83615 | 4.88654 | 24007 ft | 344 kts | 281° |
| 2026-05-04 09:43 | 50.84319 | 4.85014 | 23991 ft | 349 kts | 281° |
| 2026-05-04 09:43 | 50.85034 | 4.81257 | 24005 ft | 366 kts | 281° |
| 2026-05-04 09:44 | 50.85781 | 4.77294 | 24003 ft | 384 kts | 282° |
| 2026-05-04 09:44 | 50.86558 | 4.73173 | 24007 ft | 397 kts | 282° |
| 2026-05-04 09:44 | 50.87354 | 4.68968 | 23997 ft | 397 kts | 282° |
| 2026-05-04 09:46 | 50.94919 | 4.41379 | 24019 ft | 399 kts | 297° |
| 2026-05-04 09:46 | 50.96389 | 4.37639 | 24019 ft | 399 kts | 297° |
| 2026-05-04 09:46 | 50.97847 | 4.33897 | 24016 ft | 399 kts | 297° |
| 2026-05-04 09:47 | 50.99292 | 4.30160 | 24019 ft | 398 kts | 297° |
| 2026-05-04 09:47 | 51.00733 | 4.26408 | 24016 ft | 398 kts | 297° |
| 2026-05-04 09:49 | 51.10718 | 4.00137 | 23994 ft | 396 kts | 296° |
| 2026-05-04 09:49 | 51.12136 | 3.96385 | 23995 ft | 396 kts | 296° |
| 2026-05-04 09:49 | 51.13556 | 3.92621 | 23992 ft | 396 kts | 296° |
| 2026-05-04 09:51 | 51.22052 | 3.69965 | 23988 ft | 399 kts | 296° |
| 2026-05-04 09:51 | 51.23476 | 3.66156 | 23987 ft | 400 kts | 296° |
| 2026-05-04 09:51 | 51.24898 | 3.62336 | 23987 ft | 400 kts | 296° |
| 2026-05-04 09:51 | 51.26319 | 3.58508 | 23993 ft | 401 kts | 296° |
| 2026-05-04 09:52 | 51.27738 | 3.54677 | 23991 ft | 401 kts | 296° |
| 2026-05-04 09:52 | 51.29155 | 3.50843 | 24003 ft | 400 kts | 296° |
| 2026-05-04 09:52 | 51.30565 | 3.47021 | 23997 ft | 399 kts | 296° |
| 2026-05-04 09:52 | 51.31974 | 3.43202 | 23991 ft | 398 kts | 296° |
| 2026-05-04 09:53 | 51.33376 | 3.39395 | 23989 ft | 397 kts | 296° |
| 2026-05-04 09:53 | 51.34758 | 3.35586 | 23989 ft | 395 kts | 293° |
| 2026-05-04 09:53 | 51.35858 | 3.31604 | 24008 ft | 389 kts | 286° |
| 2026-05-04 09:53 | 51.36788 | 3.27562 | 24006 ft | 387 kts | 285° |
| 2026-05-04 09:54 | 51.37697 | 3.23537 | 23989 ft | 386 kts | 285° |
| 2026-05-04 09:54 | 51.38625 | 3.19505 | 23991 ft | 386 kts | 286° |
| 2026-05-04 09:54 | 51.39568 | 3.15496 | 24005 ft | 385 kts | 286° |
| 2026-05-04 09:54 | 51.40512 | 3.11511 | 23998 ft | 386 kts | 286° |
| 2026-05-04 09:55 | 51.41420 | 3.07676 | 23994 ft | 386 kts | 286° |
| 2026-05-04 09:55 | 51.42336 | 3.03789 | 23997 ft | 386 kts | 286° |
| 2026-05-04 09:55 | 51.43247 | 2.99917 | 24000 ft | 386 kts | 286° |
| 2026-05-04 09:55 | 51.44088 | 2.96327 | 24002 ft | 386 kts | 286° |
| 2026-05-04 09:56 | 51.44950 | 2.92643 | 24009 ft | 386 kts | 286° |
| 2026-05-04 09:56 | 51.45891 | 2.88608 | 24002 ft | 386 kts | 286° |
| 2026-05-04 09:56 | 51.46829 | 2.84578 | 24011 ft | 386 kts | 287° |
| 2026-05-04 09:56 | 51.47690 | 2.80873 | 24001 ft | 385 kts | 287° |
| 2026-05-04 09:57 | 51.48581 | 2.77035 | 23998 ft | 384 kts | 286° |
| 2026-05-04 09:57 | 51.49420 | 2.73410 | 23996 ft | 383 kts | 286° |
| 2026-05-04 09:57 | 51.50217 | 2.69962 | 24000 ft | 382 kts | 286° |
| 2026-05-04 09:57 | 51.51086 | 2.66195 | 24004 ft | 381 kts | 286° |
| 2026-05-04 09:58 | 51.51919 | 2.62574 | 24002 ft | 381 kts | 286° |
| 2026-05-04 09:58 | 51.52743 | 2.58988 | 24005 ft | 380 kts | 286° |
| 2026-05-04 09:58 | 51.53599 | 2.55264 | 24006 ft | 380 kts | 286° |
| 2026-05-04 10:00 | 51.62475 | 2.30798 | 22955 ft | 362 kts | 303° |
| 2026-05-04 10:00 | 51.63849 | 2.27852 | 22715 ft | 364 kts | 303° |
| 2026-05-04 10:02 | 51.74054 | 2.05578 | 20983 ft | 369 kts | 303° |
| 2026-05-04 10:04 | 51.84594 | 1.82292 | 19269 ft | 366 kts | 303° |
| 2026-05-04 10:04 | 51.86091 | 1.78967 | 19023 ft | 365 kts | 303° |
| 2026-05-04 10:04 | 51.87559 | 1.75703 | 18650 ft | 362 kts | 304° |
| 2026-05-04 10:04 | 51.89035 | 1.72419 | 18222 ft | 359 kts | 303° |
| 2026-05-04 10:05 | 51.90415 | 1.69089 | 17801 ft | 353 kts | 295° |
| 2026-05-04 10:05 | 51.91294 | 1.65456 | 17548 ft | 344 kts | 284° |
| 2026-05-04 10:05 | 51.91773 | 1.61689 | 17185 ft | 339 kts | 277° |
| 2026-05-04 10:05 | 51.92147 | 1.57933 | 16760 ft | 337 kts | 277° |
| 2026-05-04 10:06 | 51.92512 | 1.54201 | 16328 ft | 335 kts | 277° |
| 2026-05-04 10:06 | 51.92874 | 1.50495 | 15901 ft | 333 kts | 277° |
| 2026-05-04 10:06 | 51.93237 | 1.46802 | 15478 ft | 331 kts | 277° |
| 2026-05-04 10:08 | 51.95385 | 1.25086 | 12906 ft | 323 kts | 278° |
| 2026-05-04 10:08 | 51.95738 | 1.21504 | 12483 ft | 322 kts | 278° |
| 2026-05-04 10:08 | 51.96089 | 1.17923 | 12062 ft | 320 kts | 278° |
| 2026-05-04 10:08 | 51.96437 | 1.14371 | 11666 ft | 319 kts | 278° |
| 2026-05-04 10:09 | 51.96784 | 1.10828 | 11419 ft | 317 kts | 278° |
| 2026-05-04 10:09 | 51.97128 | 1.07295 | 11164 ft | 317 kts | 278° |
| 2026-05-04 10:09 | 51.97472 | 1.03758 | 11065 ft | 318 kts | 278° |
| 2026-05-04 10:09 | 51.97816 | 1.00188 | 10669 ft | 321 kts | 278° |
| 2026-05-04 10:10 | 51.98156 | 0.96659 | 10452 ft | 313 kts | 278° |
| 2026-05-04 10:10 | 51.98486 | 0.93223 | 10300 ft | 304 kts | 278° |
| 2026-05-04 10:10 | 51.98805 | 0.89893 | 10162 ft | 294 kts | 278° |
| 2026-05-04 10:10 | 51.99113 | 0.86665 | 10030 ft | 285 kts | 277° |
| 2026-05-04 10:11 | 51.99088 | 0.83532 | 9931 ft | 273 kts | 256° |
| 2026-05-04 10:11 | 51.98378 | 0.80656 | 9523 ft | 275 kts | 243° |
| 2026-05-04 10:11 | 51.97492 | 0.77925 | 9225 ft | 272 kts | 242° |
| 2026-05-04 10:11 | 51.96598 | 0.75251 | 9017 ft | 267 kts | 241° |
| 2026-05-04 10:12 | 51.95718 | 0.72630 | 8858 ft | 261 kts | 241° |
| 2026-05-04 10:12 | 51.94862 | 0.70084 | 8713 ft | 254 kts | 242° |
| 2026-05-04 10:12 | 51.94028 | 0.67611 | 8655 ft | 245 kts | 241° |
| 2026-05-04 10:12 | 51.93222 | 0.65194 | 8544 ft | 246 kts | 245° |
| 2026-05-04 10:13 | 51.92834 | 0.62431 | 8349 ft | 259 kts | 268° |
| 2026-05-04 10:13 | 51.92837 | 0.59464 | 8123 ft | 267 kts | 270° |
| 2026-05-04 10:13 | 51.92882 | 0.56443 | 7872 ft | 269 kts | 271° |
| 2026-05-04 10:13 | 51.92937 | 0.53443 | 7702 ft | 263 kts | 271° |
| 2026-05-04 10:14 | 51.92996 | 0.50554 | 7698 ft | 251 kts | 271° |
| 2026-05-04 10:14 | 51.93055 | 0.47781 | 7684 ft | 244 kts | 271° |
| 2026-05-04 10:16 | 51.93110 | 0.28273 | 5989 ft | 234 kts | 252° |
| 2026-05-04 10:16 | 51.92561 | 0.25737 | 5724 ft | 243 kts | 251° |
| 2026-05-04 10:16 | 51.91999 | 0.23138 | 5416 ft | 246 kts | 251° |
| 2026-05-04 10:16 | 51.91436 | 0.20518 | 5096 ft | 247 kts | 251° |
| 2026-05-04 10:17 | 51.90881 | 0.17931 | 5012 ft | 238 kts | 251° |
| 2026-05-04 10:17 | 51.90341 | 0.15412 | 5006 ft | 236 kts | 251° |
| 2026-05-04 10:19 | 51.86496 | -0.02110 | 4248 ft | 237 kts | 237° |
| 2026-05-04 10:19 | 51.85312 | -0.03885 | 3981 ft | 233 kts | 205° |
| 2026-05-04 10:19 | 51.83742 | -0.04442 | 3881 ft | 232 kts | 183° |
| 2026-05-04 10:19 | 51.82123 | -0.04568 | 3717 ft | 235 kts | 181° |
| 2026-05-04 10:20 | 51.80497 | -0.04663 | 3532 ft | 231 kts | 181° |
| 2026-05-04 10:20 | 51.78916 | -0.04744 | 3309 ft | 223 kts | 181° |
| 2026-05-04 10:20 | 51.77409 | -0.04544 | 3060 ft | 214 kts | 158° |
| 2026-05-04 10:20 | 51.76259 | -0.03176 | 2812 ft | 205 kts | 123° |
| 2026-05-04 10:21 | 51.75831 | -0.01052 | 2586 ft | 199 kts | 94° |
| 2026-05-04 10:21 | 51.75773 | 0.01111 | 2490 ft | 188 kts | 91° |
| 2026-05-04 10:21 | 51.75752 | 0.03159 | 2390 ft | 177 kts | 87° |
| 2026-05-04 10:21 | 51.76190 | 0.04955 | 2261 ft | 176 kts | 44° |
| 2026-05-04 10:22 | 51.77993 | 0.07616 | 2133 ft | 183 kts | 44° |
| 2026-05-04 10:22 | 51.78917 | 0.09022 | 2045 ft | 177 kts | 44° |
| 2026-05-04 10:22 | 51.79761 | 0.10296 | 1980 ft | 156 kts | 45° |
| 2026-05-04 10:23 | 51.80507 | 0.11427 | 1953 ft | 141 kts | 45° |
| 2026-05-04 10:23 | 51.81229 | 0.12516 | 2007 ft | 143 kts | 44° |
| 2026-05-04 10:25 | 51.86256 | 0.20098 | 763 ft | 136 kts | 42° |
| 2026-05-04 10:25 | 51.86941 | 0.21141 | 613 ft | 137 kts | 44° |
| 2026-05-04 10:25 | 51.87632 | 0.22176 | 396 ft | 135 kts | 42° |
| 2026-05-04 10:25 | 51.88290 | 0.23166 | 334 ft | 113 kts | 43° |
| 2026-05-04 10:26 | 51.88723 | 0.23818 | 341 ft | 47 kts | 43° |
| 2026-05-04 10:26 | 51.88864 | 0.24150 | 351 ft | 27 kts | 71° |
| 2026-05-04 10:26 | 51.88900 | 0.24332 | 348 ft | 17 kts | 73° |
| 2026-05-04 10:26 | 51.88918 | 0.24449 | 354 ft | 9 kts | 82° |
| 2026-05-04 10:27 | 51.88918 | 0.24477 | 355 ft | 1 kts | 103° |
| 2026-05-04 10:27 | 51.88913 | 0.24495 | 357 ft | 3 kts | 118° |
| 2026-05-04 10:27 | 51.88903 | 0.24522 | 360 ft | 3 kts | 119° |
| 2026-05-04 10:27 | 51.88897 | 0.24540 | 358 ft | 3 kts | 125° |
| 2026-05-04 10:28 | 51.88866 | 0.24586 | 351 ft | 10 kts | 137° |
| 2026-05-04 10:28 | 51.88815 | 0.24692 | 355 ft | 14 kts | 97° |
| 2026-05-04 10:28 | 51.88872 | 0.24820 | 355 ft | 14 kts | 41° |
| 2026-05-04 10:28 | 51.88956 | 0.24948 | 354 ft | 19 kts | 43° |
| 2026-05-04 10:29 | 51.89054 | 0.25095 | 357 ft | 19 kts | 42° |
| 2026-05-04 10:29 | 51.89142 | 0.25227 | 354 ft | 14 kts | 42° |
| 2026-05-04 10:29 | 51.89164 | 0.25353 | 351 ft | 13 kts | 127° |
| 2026-05-04 10:29 | 51.89103 | 0.25458 | 358 ft | 13 kts | 133° |
| 2026-05-04 10:30 | 51.89056 | 0.25538 | 351 ft | 8 kts | 134° |
| 2026-05-04 10:30 | 51.89045 | 0.25591 | 358 ft | 6 kts | 69° |
| 2026-05-04 10:30 | 51.89070 | 0.25631 | 356 ft | 3 kts | 41° |
| 2026-05-04 10:30 | 51.89077 | 0.25641 | 355 ft | 1 kts | 42° |
| 2026-05-04 10:31 | 51.89079 | 0.25643 | 355 ft | 0 kts | 42° |